Flight Track Log - Related Links

Times and Time Zones

All times are in EDT time to prevent confusion due to time zone crossing. See the SKW5516 flight status page for this flight to view local times or setup timezone preferences in your user account.

Time Position Orientation Groundspeed Altitude Reporting Facility
EDT Latitude Longitude Course Direction KTS MPH feet Rate Location/Type
Sat 05:38:00 PM 36.5964 -119.6324 159° South  Level Estimated
Sat 05:39:00 PM 36.5364 -119.6037 159° South  Level Estimated
Sat 05:40:00 PM 36.4763 -119.5751 159° South  Level Estimated
Sat 05:41:00 PM 36.4163 -119.5465 159° South  Level Estimated
Sat 05:42:00 PM 36.3562 -119.5180 159° South  Level Estimated
Sat 05:43:00 PM 36.2962 -119.4895 159° South  Level Estimated
Sat 05:44:00 PM 36.2361 -119.4610 159° South  Level Estimated
Sat 05:45:00 PM 36.1760 -119.4326 159° South  Level Estimated
Sat 05:46:00 PM 36.1160 -119.4043 159° South  Level Estimated
Sat 05:47:00 PM 36.0559 -119.3759 159° South  Level Estimated
Sat 05:48:00 PM 35.9958 -119.3477 159° South  Level Estimated
Sat 05:49:00 PM 35.9357 -119.3194 159° South  Level Estimated
Sat 05:50:00 PM 35.8756 -119.2913 159° South  Level Estimated
Sat 05:51:00 PM 35.8155 -119.2631 159° South  Level Estimated
Sat 05:52:00 PM 35.7554 -119.2350 159° South  Level Estimated
Sat 05:53:00 PM 35.6953 -119.2069 159° South  Level Estimated
Sat 05:54:00 PM 35.6352 -119.1789 159° South  Level Estimated
Sat 05:55:00 PM 35.5750 -119.1509 159° South  Level Estimated
Sat 05:56:00 PM 35.5149 -119.1230 159° South  Level Estimated
Sat 05:57:00 PM 35.4547 -119.0951 159° South  Level Estimated
Sat 05:58:00 PM 35.3946 -119.0673 159° South  Level Estimated
Sat 05:59:00 PM 35.3344 -119.0395 159° South  Level Estimated
Sat 06:00:00 PM 35.2743 -119.0117 159° South  Level Estimated
Sat 06:01:00 PM 35.2141 -118.9840 159° South  Level Estimated
Sat 06:02:00 PM 35.1539 -118.9563 159° South  Level Estimated
Sat 06:03:00 PM 35.0937 -118.9286 159° South  Level Estimated
Sat 06:04:00 PM 35.0335 -118.9010 159° South  Level Estimated
Sat 06:05:00 PM 34.9733 -118.8735 159° South  Level Estimated
Sat 06:06:00 PM 34.9131 -118.8460 159° South  Level Estimated
Sat 06:07:00 PM 34.8529 -118.8185 159° South  Level Estimated
Sat 06:08:00 PM 34.7927 -118.7911 159° South  Level Estimated
Sat 06:09:00 PM 34.7325 -118.7636 159° South  Level Estimated
Sat 06:10:00 PM 34.6723 -118.7363 160° South  Level Estimated
Sat 06:11:00 PM 34.6120 -118.7090 160° South  Level Estimated
Sat 06:12:00 PM 34.5518 -118.6817 160° South  Level Estimated
Sat 06:13:00 PM 34.4916 -118.6544 160° South  Level Estimated
Sat 06:14:00 PM 34.4313 -118.6273 160° South  Level Estimated
Sat 06:15:00 PM 34.3711 -118.6001 160° South  Level Estimated
Sat 06:16:00 PM 34.3108 -118.5730 160° South  Level Estimated
Sat 06:17:00 PM 34.2505 -118.5459 160° South  Level Estimated
Sat 06:18:00 PM 34.1903 -118.5188 160° South  Level Estimated
Sat 06:19:00 PM 34.1300 -118.4918 160° South  Level Estimated
Sat 06:20:00 PM 34.0697 -118.4648 160° South  Level Estimated
Sat 06:21:00 PM 34.0094 -118.4379 160° South  Level Estimated
Sat 06:22:00 PM 33.9491 -118.4110 160° South  Level Estimated
Sat 06:23:00 PM 33.9425 -118.4081 160° South  Level Estimated
Sat 06:24:00 PM 33.9425 -118.4081 164° South  Level Estimated
Sat 06:25:00 PM 33.9425 -118.4081 164° South  Level Estimated
Sat 06:26:00 PM 33.9425 -118.4081 164° South  Level Estimated

Login

Don't have an account? Register now (free) for customized features, flight alerts, and more!